Time;durP1;ratioP1;P1;durP2;ratioP2;P2;SDS_P1;SDS_P2;PMS_P1;PMS_P2;Temp;Humidity;BMP_temperature;BMP_pressure;BME280_temperature;BME280_humidity;BME280_pressure;Samples;Min_cycle;Max_cycle;Signal;HPM_P1;HPM_P2
2022/10/08 00:01:11;;;;;;;5.93;1.92;;;8.70;99.90;;;7.47;100.00;100776.66;4980460;28;20035;-81
2022/10/08 00:03:44;;;;;;;8.95;1.75;;;8.70;99.90;;;7.45;100.00;100781.44;4965990;28;20027;-82
2022/10/08 00:06:14;;;;;;;5.00;1.90;;;8.70;99.90;;;7.49;100.00;100777.28;4963947;28;20127;-82
2022/10/08 00:08:45;;;;;;;7.38;1.83;;;8.70;99.90;;;7.53;100.00;100775.88;4962238;28;20035;-81
2022/10/08 00:11:19;;;;;;;5.25;1.67;;;8.70;99.90;;;7.54;100.00;100769.41;4963103;28;20086;-81
2022/10/08 00:13:48;;;;;;;6.63;2.03;;;8.80;99.90;;;7.55;100.00;100770.22;4964537;28;20030;-82
2022/10/08 00:16:18;;;;;;;;;;;8.80;99.90;;;7.61;100.00;100772.19;4967305;28;20035;-81
2022/10/08 00:18:47;;;;;;;5.05;1.23;;;8.80;99.90;;;7.60;100.00;100775.94;4972363;28;20385;-83
2022/10/08 00:21:21;;;;;;;4.15;1.55;;;8.80;99.90;;;7.65;100.00;100767.19;4962259;28;20030;-82
2022/10/08 00:23:49;;;;;;;6.47;1.92;;;8.90;99.90;;;7.69;100.00;100768.47;4963755;28;20113;-83
2022/10/08 00:26:19;;;;;;;6.55;1.70;;;8.90;99.90;;;7.74;100.00;100763.31;4962615;28;20189;-82
2022/10/08 00:28:46;;;;;;;10.07;1.67;;;9.00;99.90;;;7.81;100.00;100764.22;4961677;28;20042;-82
2022/10/08 00:31:19;;;;;;;7.13;1.60;;;9.10;99.90;;;7.91;100.00;100756.56;4967477;28;20035;-81
2022/10/08 00:33:49;;;;;;;5.57;1.63;;;9.10;99.90;;;7.93;100.00;100753.66;4968038;28;20106;-83
2022/10/08 00:36:16;;;;;;;6.72;1.77;;;9.20;99.90;;;7.94;100.00;100754.47;4963937;28;20041;-82
2022/10/08 00:38:41;;;;;;;9.18;1.90;;;9.20;99.90;;;8.00;100.00;100754.53;4961987;28;20121;-83
2022/10/08 00:41:18;;;;;;;6.22;1.52;;;9.30;99.90;;;8.03;100.00;100758.75;4961318;28;20096;-82
2022/10/08 00:43:55;;;;;;;9.63;1.77;;;9.30;99.90;;;8.09;99.45;100757.09;4963387;28;20445;-81
2022/10/08 00:46:40;;;;;;;5.78;1.50;;;9.30;99.90;;;8.10;99.45;100754.19;4963717;28;20445;-82
2022/10/08 00:49:16;;;;;;;4.15;1.50;;;9.30;99.90;;;8.10;98.87;100746.06;4962827;28;20089;-82
2022/10/08 00:51:48;;;;;;;4.63;1.67;;;9.30;99.90;;;8.04;99.45;100744.97;4957464;28;20042;-81
2022/10/08 00:54:17;;;;;;;5.70;1.60;;;9.40;99.90;;;8.04;99.89;100744.13;4961865;28;20030;-81
2022/10/08 00:56:46;;;;;;;4.57;1.50;;;9.30;99.90;;;8.02;100.00;100744.31;4964480;28;20611;-82
2022/10/08 00:59:12;;;;;;;10.32;1.40;;;9.30;99.90;;;8.04;99.44;100744.13;4963322;28;20445;-82
2022/10/08 01:01:42;;;;;;;5.30;1.55;;;9.30;99.90;;;7.97;98.84;100738.63;4962078;28;20042;-81
2022/10/08 01:04:10;;;;;;;7.35;2.60;;;9.30;99.90;;;8.04;99.26;100730.53;4961692;28;20039;-80
2022/10/08 01:07:01;;;;;;;;;;;9.30;99.90;;;8.06;98.77;100736.63;4963749;28;20072;-81
2022/10/08 01:09:42;;;;;;;;;;;9.30;99.90;;;8.01;98.95;100736.38;4964007;28;19925;-82
2022/10/08 01:12:43;;;;;;;8.05;1.33;;;9.30;99.90;;;7.96;99.20;100731.53;4962861;28;19914;-82
2022/10/08 01:15:25;;;;;;;6.07;1.35;;;9.20;99.90;;;7.99;99.05;100738.47;4963406;28;20045;-82
2022/10/08 01:18:23;;;;;;;5.22;1.30;;;9.30;99.90;;;7.92;99.17;100725.63;4965050;28;20034;-82
2022/10/08 01:21:36;;;;;;;4.32;1.35;;;9.20;99.90;;;8.03;98.95;100726.97;4961679;28;20111;-77
2022/10/08 01:27:45;;;;;;;5.43;1.27;;;9.30;99.90;;;8.01;98.96;100728.22;4961863;28;20043;-84
2022/10/08 01:30:16;;;;;;;7.00;1.88;;;9.30;99.90;;;7.93;100.00;100723.78;4966827;28;20045;-82
2022/10/08 01:32:51;;;;;;;5.78;1.30;;;9.20;99.90;;;7.94;100.00;100727.31;4960982;28;20465;-82
2022/10/08 01:35:27;;;;;;;6.38;1.70;;;9.20;99.90;;;8.02;100.00;100724.47;4961632;28;20030;-80
2022/10/08 01:37:57;;;;;;;3.15;1.25;;;9.20;99.90;;;7.89;100.00;100709.75;4963495;28;20033;-82
2022/10/08 01:40:33;;;;;;;9.43;1.63;;;9.20;99.90;;;7.87;100.00;100717.25;4965089;28;20042;-81
2022/10/08 01:43:04;;;;;;;6.97;1.70;;;9.10;99.90;;;7.85;100.00;100718.50;4965802;28;20049;-81
2022/10/08 01:45:40;;;;;;;4.07;1.48;;;9.10;99.90;;;7.84;100.00;100709.50;4961240;28;20039;-81
2022/10/08 01:48:14;;;;;;;9.05;1.95;;;9.20;99.90;;;7.82;100.00;100718.88;4960201;28;20564;-81
2022/10/08 01:50:54;;;;;;;7.35;1.80;;;9.10;99.90;;;7.85;100.00;100719.31;4960944;28;20047;-82
2022/10/08 01:53:26;;;;;;;6.72;1.70;;;9.20;99.90;;;7.88;100.00;100716.22;4964951;28;20038;-81
2022/10/08 01:55:54;;;;;;;9.50;2.13;;;9.20;99.90;;;7.96;100.00;100723.38;4966408;28;20105;-82
2022/10/08 01:58:35;;;;;;;9.65;1.70;;;9.20;99.90;;;7.97;100.00;100710.66;4968069;28;20114;-82
2022/10/08 02:01:31;;;;;;;4.53;1.50;;;9.20;99.90;;;8.02;100.00;100719.03;4961011;28;20456;-81
2022/10/08 02:04:39;;;;;;;8.35;2.00;;;9.30;99.90;;;8.25;99.68;100707.88;4961022;28;20038;-82
2022/10/08 02:06:55;;;;;;;8.60;1.70;;;9.40;99.90;;;8.26;98.97;100700.59;4962770;28;20245;-81
2022/10/08 02:09:25;;;;;;;8.40;1.65;;;9.50;99.90;;;8.34;98.41;100705.84;4968108;28;20043;-81
2022/10/08 02:11:52;;;;;;;5.38;1.73;;;9.60;99.90;;;8.31;98.59;100700.81;4966348;28;20112;-81
2022/10/08 02:14:24;;;;;;;9.30;2.08;;;9.60;99.90;;;8.47;97.83;100705.91;4979047;28;20023;-80
2022/10/08 02:17:14;;;;;;;8.00;1.88;;;9.70;99.90;;;8.66;96.88;100710.84;4960438;28;20496;-83
2022/10/08 02:19:56;;;;;;;6.68;2.20;;;9.90;99.90;;;8.76;96.32;100712.16;4964291;28;20113;-80
2022/10/08 02:22:43;;;;;;;5.10;1.50;;;10.00;99.90;;;8.91;94.56;100703.00;4966864;28;20027;-80
2022/10/08 02:25:37;;;;;;;7.25;2.00;;;10.10;99.90;;;8.94;94.14;100699.84;4955111;28;20042;-81
2022/10/08 02:28:19;;;;;;;7.13;1.70;;;10.20;99.90;;;9.02;93.75;100704.28;4956450;28;20146;-80
2022/10/08 02:31:29;;;;;;;9.35;1.63;;;10.30;99.90;;;9.25;91.78;100711.25;4965724;28;20043;-79
2022/10/08 02:34:27;;;;;;;11.30;1.60;;;10.50;99.90;;;9.41;90.84;100704.56;4960072;28;20039;-81
2022/10/08 02:37:04;;;;;;;9.45;1.60;;;10.60;99.90;;;9.49;90.08;100709.81;4962948;28;20061;-80
2022/10/08 02:39:35;;;;;;;6.82;1.63;;;10.70;99.90;;;9.45;90.39;100705.81;4962250;28;20117;-80
2022/10/08 02:42:09;;;;;;;6.38;2.30;;;10.70;99.90;;;9.44;90.29;100698.69;4969373;28;20110;-80
2022/10/08 02:44:53;;;;;;;8.02;1.80;;;10.70;99.90;;;9.48;90.70;100702.69;4969472;28;20494;-81
2022/10/08 02:47:24;;;;;;;10.43;2.08;;;10.70;99.90;;;9.44;90.03;100695.97;4978879;28;20026;-81
2022/10/08 02:50:01;;;;;;;10.70;2.17;;;10.70;99.90;;;9.55;89.65;100702.69;4959930;28;20027;-80
2022/10/08 02:52:38;;;;;;;8.13;1.83;;;10.80;99.90;;;9.54;89.79;100707.28;4966613;28;20055;-80
2022/10/08 02:55:21;;;;;;;9.07;1.65;;;10.80;99.90;;;9.50;89.54;100703.31;4969786;28;20027;-81
2022/10/08 02:58:01;;;;;;;7.53;2.05;;;10.80;99.90;;;9.56;89.41;100698.91;4968611;28;20508;-82
2022/10/08 03:00:35;;;;;;;7.10;1.83;;;10.80;99.90;;;9.46;90.11;100699.31;4962520;28;20039;-82
2022/10/08 03:03:12;;;;;;;6.85;1.52;;;10.70;99.90;;;9.52;89.86;100698.50;4967227;28;20034;-80
2022/10/08 03:05:41;;;;;;;7.65;1.63;;;10.70;99.90;;;9.54;89.63;100688.22;4968592;28;20077;-81
2022/10/08 03:08:12;;;;;;;8.88;1.80;;;10.70;99.90;;;9.45;89.80;100692.22;4968156;28;20489;-81
2022/10/08 03:10:41;;;;;;;8.05;2.05;;;10.70;99.90;;;9.38;89.99;100681.31;4964769;28;20110;-81
2022/10/08 03:13:09;;;;;;;8.77;2.50;;;10.70;99.90;;;9.40;90.94;100694.72;4965317;28;20639;-81
2022/10/08 03:15:36;;;;;;;;;;;10.60;99.90;;;9.42;90.83;100695.34;4969857;28;20031;-82
2022/10/08 03:18:09;;;;;;;9.23;1.83;;;10.60;99.90;;;9.30;91.02;100676.91;4970815;28;19914;-83
2022/10/08 03:20:44;;;;;;;9.60;1.90;;;10.60;99.90;;;9.35;91.07;100690.75;4965654;28;20093;-82
2022/10/08 03:23:15;;;;;;;13.32;2.28;;;10.60;99.90;;;9.31;91.42;100683.19;4964606;28;20121;-82
2022/10/08 03:25:41;;;;;;;12.40;2.17;;;10.60;99.90;;;9.29;91.61;100688.84;4964249;28;20082;-80
2022/10/08 03:28:07;;;;;;;7.85;1.90;;;10.50;99.90;;;9.14;92.88;100680.84;4970917;28;20031;-82
2022/10/08 03:30:34;;;;;;;8.98;2.20;;;10.40;99.90;;;9.02;93.09;100669.75;4969754;28;20078;-83
2022/10/08 03:32:59;;;;;;;10.25;1.83;;;10.40;99.90;;;9.08;94.09;100684.41;4965084;28;20433;-81
2022/10/08 03:35:25;;;;;;;11.23;2.53;;;10.30;99.90;;;9.03;94.38;100689.63;4967687;28;20041;-82
2022/10/08 03:37:52;;;;;;;7.20;1.70;;;10.30;99.90;;;9.01;94.05;100684.38;4974675;28;20066;-82
2022/10/08 03:40:20;;;;;;;9.00;1.98;;;10.30;99.90;;;8.90;95.02;100685.84;4976646;28;20474;-82
2022/10/08 03:42:46;;;;;;;9.05;2.55;;;10.20;99.90;;;8.84;96.62;100683.91;4969026;28;20389;-81
2022/10/08 03:45:19;;;;;;;9.73;2.28;;;10.20;99.90;;;8.86;97.02;100679.09;4965240;28;20032;-82
2022/10/08 03:47:50;;;;;;;7.00;1.98;;;10.20;99.90;;;8.90;96.25;100671.38;4962124;28;20023;-80
2022/10/08 03:50:16;;;;;;;8.90;1.80;;;10.20;99.90;;;9.06;95.91;100694.66;4964795;28;20035;-81
2022/10/08 03:52:42;;;;;;;7.85;1.88;;;10.30;99.90;;;9.18;95.29;100695.75;4969658;28;20038;-82
2022/10/08 03:55:08;;;;;;;7.93;1.88;;;10.40;99.90;;;9.31;94.22;100699.53;4970533;28;20034;-83
2022/10/08 03:57:34;;;;;;;7.80;1.90;;;10.50;99.90;;;9.43;93.67;100705.19;4970592;28;20541;-84
2022/10/08 03:59:59;;;;;;;7.05;2.33;;;10.70;99.90;;;9.52;93.72;100698.50;4969290;28;20066;-81
2022/10/08 04:02:25;;;;;;;11.20;2.00;;;10.80;99.90;;;9.74;91.25;100698.28;4967424;28;20085;-81
2022/10/08 04:04:51;;;;;;;10.23;2.03;;;10.90;99.90;;;9.84;90.52;100689.69;4967930;28;20043;-85
2022/10/08 04:07:17;;;;;;;8.40;2.08;;;11.10;99.90;;;9.85;91.82;100699.53;4963893;28;20030;-84
2022/10/08 04:09:42;;;;;;;6.30;1.85;;;11.10;99.90;;;9.89;91.52;100698.06;4968431;28;20402;-83
2022/10/08 04:12:08;;;;;;;11.43;2.33;;;11.20;99.90;;;9.93;90.77;100696.59;4971867;28;20042;-83
2022/10/08 04:14:34;;;;;;;11.02;2.03;;;11.20;99.90;;;9.96;91.20;100698.06;4962665;28;20086;-83
2022/10/08 04:17:00;;;;;;;10.95;2.05;;;11.20;99.90;;;10.01;90.26;100696.38;4955420;28;20042;-84
2022/10/08 04:19:26;;;;;;;9.85;2.10;;;11.30;99.90;;;10.08;88.92;100691.75;4967583;28;20038;-85
2022/10/08 04:21:51;;;;;;;6.45;1.90;;;11.30;99.90;;;10.14;88.52;100698.25;4965806;28;20222;-84
2022/10/08 04:24:17;;;;;;;9.85;2.00;;;11.40;99.90;;;10.16;89.30;100701.59;4957724;28;20046;-79
2022/10/08 04:26:43;;;;;;;10.70;1.83;;;11.40;99.90;;;10.14;89.41;100689.22;4957176;28;20038;-78
2022/10/08 04:29:11;;;;;;;7.90;2.10;;;11.40;99.90;;;10.18;89.05;100693.19;4959994;28;20038;-80
2022/10/08 04:31:37;;;;;;;7.22;2.30;;;11.50;99.90;;;10.31;87.89;100703.22;4966024;28;20043;-79
2022/10/08 04:34:03;;;;;;;7.45;1.80;;;11.50;99.90;;;10.31;88.02;100695.06;4982183;28;20031;-79
2022/10/08 04:36:28;;;;;;;9.95;1.90;;;11.50;99.90;;;10.38;87.98;100703.22;4961859;28;20035;-78
2022/10/08 04:38:54;;;;;;;9.93;1.90;;;11.60;99.90;;;10.38;87.78;100697.78;4964197;28;20034;-81
2022/10/08 04:41:24;;;;;;;4.82;1.90;;;11.60;99.90;;;10.34;88.14;100700.94;4961687;28;20490;-79
2022/10/08 04:43:52;;;;;;;9.00;2.17;;;11.60;99.90;;;10.34;88.54;100698.19;4966777;28;20058;-77
2022/10/08 04:46:20;;;;;;;9.32;2.03;;;11.60;99.90;;;10.34;88.87;100702.81;4966989;28;20030;-79
2022/10/08 04:48:53;;;;;;;10.30;2.05;;;11.60;99.90;;;10.28;89.34;100706.41;4961536;28;20031;-79
2022/10/08 04:51:22;;;;;;;11.85;2.55;;;11.60;99.90;;;10.24;90.25;100691.50;4961860;28;20303;-81
2022/10/08 04:53:48;;;;;;;7.07;2.03;;;11.60;99.90;;;10.28;90.22;100690.03;4964497;28;20497;-78
2022/10/08 04:56:21;;;;;;;7.72;1.88;;;11.60;99.90;;;10.32;90.75;100699.47;4966812;28;20035;-78
2022/10/08 04:58:47;;;;;;;6.90;1.90;;;11.50;99.90;;;10.28;90.87;100693.59;4961826;28;20030;-80
2022/10/08 05:01:16;;;;;;;6.53;1.65;;;11.50;99.90;;;10.20;91.71;100688.38;4960956;28;20030;-80
2022/10/08 05:03:51;;;;;;;9.52;2.28;;;11.50;99.90;;;10.21;91.91;100704.53;4959310;28;20062;-80
2022/10/08 05:06:21;;;;;;;9.70;2.00;;;11.50;99.90;;;10.16;92.91;100698.88;4967189;28;20055;-76
2022/10/08 05:08:48;;;;;;;10.27;2.13;;;11.40;99.90;;;10.08;93.75;100693.66;4962054;28;20030;-79
2022/10/08 05:11:15;;;;;;;9.13;2.25;;;11.40;99.90;;;10.01;94.98;100701.00;4960865;28;20041;-81
2022/10/08 05:13:42;;;;;;;11.77;2.40;;;11.30;99.90;;;10.00;95.80;100708.34;4965281;28;20129;-83
2022/10/08 05:16:12;;;;;;;10.57;2.67;;;11.30;99.90;;;9.99;97.07;100717.56;4967173;28;20061;-79
2022/10/08 05:18:40;;;;;;;10.98;2.40;;;11.30;99.90;;;10.08;96.22;100718.19;4962109;28;20034;-78
2022/10/08 05:21:13;;;;;;;10.95;2.80;;;11.30;99.90;;;10.13;96.22;100723.00;4972767;28;20037;-80
2022/10/08 05:23:41;;;;;;;8.70;2.53;;;11.30;99.90;;;10.06;97.26;100718.41;4955506;28;20061;-80
2022/10/08 05:26:36;;;;;;;8.30;2.58;;;11.30;99.90;;;10.10;97.20;100721.53;4956342;28;20058;-79
2022/10/08 05:29:01;;;;;;;6.75;2.40;;;11.40;99.90;;;10.13;97.22;100729.28;4961755;28;20043;-76
2022/10/08 05:31:29;;;;;;;12.25;2.50;;;11.40;99.90;;;10.13;97.39;100725.72;4969376;28;20044;-80
2022/10/08 05:33:57;;;;;;;8.85;3.00;;;11.40;99.90;;;10.14;97.42;100716.50;4969242;28;20058;-79
2022/10/08 05:36:30;;;;;;;10.07;2.83;;;11.40;99.90;;;10.15;97.76;100727.19;4967085;28;20050;-82
2022/10/08 05:38:58;;;;;;;8.60;2.60;;;11.40;99.90;;;10.11;97.85;100725.94;4961877;28;20125;-81
2022/10/08 05:41:28;;;;;;;9.73;2.95;;;11.40;99.90;;;10.16;97.93;100734.31;4966007;28;20063;-82
2022/10/08 05:43:57;;;;;;;11.73;2.97;;;11.40;99.90;;;10.16;98.26;100734.31;4965852;28;20049;-81
2022/10/08 05:46:25;;;;;;;9.00;3.10;;;11.40;99.90;;;10.19;98.64;100741.22;4969204;28;20085;-80
2022/10/08 05:48:53;;;;;;;10.05;3.08;;;11.50;99.90;;;10.22;98.81;100749.81;4967198;28;20458;-86
2022/10/08 05:51:19;;;;;;;12.88;3.35;;;11.50;99.90;;;10.24;98.69;100752.34;4966690;28;20035;-83
2022/10/08 05:53:49;;;;;;;7.82;3.30;;;11.50;99.90;;;10.28;98.54;100752.75;4967375;28;20049;-79
2022/10/08 05:56:18;;;;;;;20.13;3.83;;;11.60;99.90;;;10.30;98.49;100756.94;4966206;28;20038;-81
2022/10/08 05:58:46;;;;;;;15.55;3.38;;;11.60;99.90;;;10.33;98.31;100761.13;4963894;28;20292;-82
2022/10/08 06:01:25;;;;;;;11.40;3.47;;;11.60;99.90;;;10.34;98.64;100760.06;4965385;28;20066;-82
2022/10/08 06:04:01;;;;;;;12.65;3.55;;;11.60;99.90;;;10.31;99.02;100761.34;4964716;28;20091;-82
2022/10/08 06:06:27;;;;;;;15.25;4.00;;;11.60;99.90;;;10.28;99.43;100763.66;4966167;28;20050;-83
2022/10/08 06:08:58;;;;;;;10.82;3.85;;;11.60;99.90;;;10.32;99.13;100768.47;4965680;28;20039;-81
2022/10/08 06:11:25;;;;;;;9.68;4.00;;;11.60;99.90;;;10.35;100.00;100769.97;4961494;28;20031;-83
2022/10/08 06:13:54;;;;;;;11.27;4.20;;;11.60;99.90;;;10.24;100.00;100773.31;4969234;28;20035;-79
2022/10/08 06:16:19;;;;;;;;;;;11.60;99.90;;;10.14;100.00;100773.75;4971645;28;20062;-83
2022/10/08 06:18:45;;;;;;;19.27;6.10;;;11.50;99.90;;;10.06;100.00;100772.91;4973884;28;19913;-83
2022/10/08 06:21:16;;;;;;;13.60;5.93;;;11.40;99.90;;;10.08;100.00;100759.91;4976483;28;20099;-79
2022/10/08 06:23:49;;;;;;;15.90;6.93;;;11.40;99.90;;;10.14;100.00;100768.28;4983140;28;20047;-81
2022/10/08 06:26:16;;;;;;;19.08;7.45;;;11.40;99.90;;;10.12;100.00;100745.84;4977425;28;20343;-80
2022/10/08 06:28:44;;;;;;;15.07;7.13;;;11.50;99.90;;;10.25;100.00;100778.56;4967032;28;20086;-83
2022/10/08 06:31:10;;;;;;;20.00;8.00;;;11.50;99.90;;;10.27;100.00;100765.56;4972808;28;20030;-79
2022/10/08 06:33:36;;;;;;;19.23;7.97;;;11.50;99.90;;;10.29;100.00;100779.81;4974294;28;20490;-80
2022/10/08 06:36:22;;;;;;;15.77;8.07;;;11.60;99.90;;;10.35;100.00;100784.41;4983745;28;20042;-81
2022/10/08 06:39:01;;;;;;;18.05;8.07;;;11.60;99.90;;;10.41;100.00;100788.22;4974941;28;20062;-82
2022/10/08 06:41:33;;;;;;;13.82;7.75;;;11.70;99.90;;;10.45;100.00;100792.19;4977140;28;20042;-82
2022/10/08 06:44:12;;;;;;;14.38;7.45;;;11.70;99.90;;;10.49;100.00;100798.06;4981404;28;20039;-81
2022/10/08 06:46:38;;;;;;;18.27;8.88;;;11.80;99.90;;;10.52;100.00;100805.84;4982311;28;20062;-83
2022/10/08 06:49:04;;;;;;;15.88;7.78;;;11.80;99.90;;;10.59;100.00;100803.91;4980139;28;20042;-82
2022/10/08 06:51:32;;;;;;;20.08;9.00;;;11.80;99.90;;;10.61;100.00;100785.44;4968384;28;20133;-80
2022/10/08 06:54:00;;;;;;;16.83;8.00;;;11.90;99.90;;;10.66;100.00;100793.00;4975985;28;20066;-81
2022/10/08 06:56:27;;;;;;;14.13;7.60;;;11.90;99.90;;;10.65;100.00;100797.59;4962755;28;20036;-81
2022/10/08 06:58:53;;;;;;;16.25;8.13;;;11.90;99.90;;;10.65;100.00;100788.59;4977353;28;20639;-81
2022/10/08 07:01:25;;;;;;;14.23;7.05;;;12.00;99.90;;;10.71;100.00;100806.84;4975536;28;20062;-81
2022/10/08 07:03:57;;;;;;;18.13;7.03;;;12.00;99.90;;;10.74;100.00;100806.41;4973765;28;20038;-83
2022/10/08 07:06:24;;;;;;;17.95;6.07;;;12.00;99.90;;;10.69;100.00;100802.63;4974606;28;20034;-81
2022/10/08 07:09:03;;;;;;;16.98;6.75;;;12.00;99.90;;;10.56;100.00;100814.41;4967685;28;20035;-81
2022/10/08 07:11:31;;;;;;;18.00;6.60;;;11.90;99.90;;;10.47;100.00;100817.38;4974917;28;20094;-84
2022/10/08 07:13:58;;;;;;;15.10;7.07;;;11.80;99.90;;;10.36;100.00;100828.91;4981047;28;20038;-81
2022/10/08 07:16:26;;;;;;;16.65;7.15;;;11.70;99.90;;;10.32;100.00;100824.91;4967967;28;20031;-81
2022/10/08 07:18:55;;;;;;;13.95;7.05;;;11.60;99.90;;;10.16;100.00;100816.09;4966320;28;20122;-82
2022/10/08 07:21:21;;;;;;;16.90;7.13;;;11.60;99.90;;;10.26;100.00;100832.06;4974808;28;20035;-82
2022/10/08 07:23:48;;;;;;;13.88;7.03;;;11.60;99.90;;;10.35;100.00;100840.88;4986558;28;20072;-81
2022/10/08 07:26:21;;;;;;;16.67;7.78;;;11.60;99.90;;;10.45;100.00;100852.22;4973295;28;20064;-83
2022/10/08 07:28:57;;;;;;;17.75;7.60;;;11.70;99.90;;;10.54;100.00;100855.56;4972241;28;20125;-83
2022/10/08 07:31:28;;;;;;;16.80;7.95;;;11.80;99.90;;;10.42;100.00;100844.44;4975129;28;20478;-83
2022/10/08 07:33:55;;;;;;;15.57;7.95;;;11.80;99.90;;;10.50;100.00;100862.50;4973921;28;20058;-81
2022/10/08 07:36:23;;;;;;;19.05;8.25;;;11.80;99.90;;;10.54;100.00;100868.34;4964082;28;20483;-81
2022/10/08 07:38:54;;;;;;;19.75;8.25;;;11.80;99.90;;;10.49;100.00;100879.91;4970188;28;20035;-80
2022/10/08 07:41:21;;;;;;;21.92;8.15;;;11.80;99.90;;;10.48;100.00;100878.22;4973332;28;20221;-85
2022/10/08 07:43:51;;;;;;;18.67;8.38;;;11.80;99.90;;;10.48;100.00;100873.59;4970135;28;20027;-80
2022/10/08 07:46:17;;;;;;;18.73;9.25;;;11.80;99.90;;;10.65;100.00;100884.09;4968248;28;20038;-80
2022/10/08 07:48:43;;;;;;;15.10;8.73;;;11.80;99.90;;;10.80;100.00;100897.50;4966431;28;20114;-80
2022/10/08 07:51:18;;;;;;;16.25;8.68;;;12.00;99.90;;;10.96;100.00;100892.63;4968652;28;20296;-82
2022/10/08 07:53:44;;;;;;;18.88;8.30;;;12.10;99.90;;;11.27;100.00;100889.19;4960022;28;20082;-80
2022/10/08 07:56:13;;;;;;;15.57;8.02;;;;;;;11.65;100.00;100899.31;4961378;28;20035;-84
2022/10/08 07:58:39;;;;;;;16.63;7.85;;;12.80;99.90;;;11.58;100.00;100886.75;4965041;28;20035;-79
2022/10/08 08:01:10;;;;;;;15.95;7.57;;;12.90;99.90;;;11.60;100.00;100893.66;4966827;28;20034;-79
2022/10/08 08:03:37;;;;;;;14.80;6.45;;;12.90;99.90;;;11.74;100.00;100897.16;4966872;28;20035;-80
2022/10/08 08:06:08;;;;;;;16.35;7.32;;;13.00;99.90;;;11.77;100.00;100895.91;4964928;28;20038;-80
2022/10/08 08:08:37;;;;;;;11.70;6.40;;;13.10;99.90;;;11.84;100.00;100904.91;4967094;28;20039;-82
2022/10/08 08:11:06;;;;;;;12.02;5.75;;;13.10;99.90;;;11.73;98.17;100905.59;4962444;28;20066;-84
2022/10/08 08:13:35;;;;;;;13.85;5.18;;;13.10;99.90;;;11.80;97.86;100918.19;4967093;28;20022;-83
2022/10/08 08:16:08;;;;;;;10.40;5.18;;;13.10;99.90;;;11.89;96.02;100913.28;4962751;28;20028;-81
2022/10/08 08:18:38;;;;;;;10.68;4.78;;;13.20;99.90;;;11.93;96.15;100921.88;4964434;28;20058;-86
2022/10/08 08:21:07;;;;;;;9.73;4.70;;;13.20;99.90;;;11.86;96.09;100926.56;4962345;28;20474;-85
2022/10/08 08:23:37;;;;;;;8.68;4.13;;;13.20;99.90;;;11.79;95.60;100926.59;4958641;28;20478;-85
2022/10/08 08:26:07;;;;;;;12.07;4.35;;;13.10;99.90;;;11.85;95.41;100919.41;4947291;28;20081;-86
2022/10/08 08:28:33;;;;;;;8.57;4.07;;;13.20;99.90;;;11.73;95.30;100933.75;4962990;28;20050;-86
2022/10/08 08:31:21;;;;;;;13.10;4.68;;;13.10;99.90;;;11.76;96.36;100937.97;4957592;28;20131;-83
2022/10/08 08:33:51;;;;;;;15.07;4.72;;;13.10;99.90;;;11.83;95.23;100940.66;4958343;28;20046;-85
2022/10/08 08:36:19;;;;;;;10.27;4.53;;;13.10;99.90;;;11.96;94.46;100945.22;4960464;28;20118;-84
2022/10/08 08:38:45;;;;;;;9.57;4.78;;;13.20;99.90;;;12.04;92.82;100942.25;4955054;28;20537;-85
2022/10/08 08:41:50;;;;;;;15.10;4.15;;;13.30;99.90;;;12.28;91.72;100957.03;4963236;28;20074;-78
2022/10/08 08:44:15;;;;;;;9.88;4.00;;;13.50;99.90;;;12.52;89.15;100955.41;4956199;28;20105;-81
2022/10/08 08:46:59;;;;;;;8.98;3.60;;;13.70;99.90;;;12.70;87.54;100952.94;4958377;28;20479;-80
2022/10/08 08:49:38;;;;;;;7.53;3.20;;;13.90;99.90;;;12.76;86.25;100941.94;4965722;28;20132;-86
2022/10/08 08:52:07;;;;;;;9.50;3.10;;;14.10;99.90;;;12.99;85.87;100951.41;4967496;28;20065;-82
2022/10/08 08:54:33;;;;;;;10.52;4.10;;;14.30;99.90;;;12.99;84.52;100959.63;4956751;28;20112;-84
2022/10/08 08:57:35;;;;;;;10.40;4.18;;;14.40;99.90;;;13.32;82.88;100963.94;4967434;28;20720;-83
2022/10/08 09:00:17;;;;;;;6.10;3.10;;;14.50;99.90;;;13.61;81.70;100958.78;4954709;28;20466;-83
2022/10/08 09:03:14;;;;;;;8.57;3.25;;;14.80;99.90;;;13.59;80.96;100960.94;4959887;28;20113;-84
2022/10/08 09:05:44;;;;;;;7.15;3.13;;;15.00;99.90;;;13.91;79.20;100959.88;4951598;28;20046;-84
2022/10/08 09:08:36;;;;;;;7.55;3.35;;;15.30;99.90;;;14.23;76.87;100967.91;4962648;28;20038;-84
2022/10/08 09:11:04;;;;;;;13.43;3.17;;;15.50;99.90;;;14.13;77.65;100976.69;4959412;28;20034;-79
2022/10/08 09:13:50;;;;;;;7.63;3.28;;;15.50;99.90;;;13.66;78.90;100961.66;4961243;28;20407;-81
2022/10/08 09:16:17;;;;;;;7.78;3.38;;;15.20;99.90;;;13.58;79.53;100974.84;4956546;28;20046;-85
2022/10/08 09:18:49;;;;;;;9.75;3.13;;;15.00;99.90;;;13.17;80.88;100974.41;4962443;28;20122;-86
2022/10/08 09:21:17;;;;;;;9.68;3.88;;;14.70;99.90;;;13.35;81.10;100984.56;4975041;28;20041;-81
2022/10/08 09:23:44;;;;;;;7.18;3.15;;;14.70;99.90;;;13.71;78.95;100985.66;4962192;28;20037;-79
2022/10/08 09:26:25;;;;;;;8.25;3.13;;;15.00;99.90;;;14.15;76.89;100996.50;4965520;28;20039;-82
2022/10/08 09:28:55;;;;;;;9.52;3.15;;;15.30;99.90;;;14.40;74.57;101003.75;4958647;28;20047;-80
2022/10/08 09:31:44;;;;;;;8.32;3.70;;;15.70;99.90;;;14.00;75.02;100988.66;4966390;28;20035;-86
2022/10/08 09:34:09;;;;;;;7.88;2.97;;;15.60;99.90;;;14.09;75.94;100997.44;4958884;28;20429;-86
2022/10/08 09:36:47;;;;;;;9.20;3.20;;;15.50;99.90;;;14.39;74.48;100999.31;4956195;28;20043;-83
2022/10/08 09:39:29;;;;;;;7.80;2.85;;;15.70;99.90;;;14.43;73.71;101002.41;4960264;28;20034;-83
2022/10/08 09:42:16;;;;;;;8.80;2.42;;;15.90;99.90;;;14.60;73.13;101008.09;4967450;28;20414;-84
2022/10/08 09:44:58;;;;;;;6.22;2.35;;;16.40;99.90;;;15.15;70.96;101014.41;4977739;28;20406;-84
2022/10/08 09:47:26;;;;;;;10.27;2.70;;;17.10;99.90;;;15.45;68.20;101011.50;4955277;28;20559;-80
2022/10/08 09:50:21;;;;;;;;;;;17.60;99.90;;;16.11;65.36;100996.66;4962265;28;20313;-82
2022/10/08 09:52:53;;;;;;;7.82;2.25;;;18.00;99.90;;;17.30;60.65;101015.25;4961428;28;19918;-83
2022/10/08 09:55:29;;;;;;;10.18;2.45;;;19.50;97.40;;;18.16;57.08;101021.34;4960218;28;20069;-82
2022/10/08 09:58:02;;;;;;;10.18;1.95;;;20.20;93.40;;;19.41;51.73;101017.72;4955797;28;20115;-83
2022/10/08 10:00:34;;;;;;;9.85;1.90;;;20.80;91.00;;;19.98;49.59;101024.41;4964006;28;20026;-80
2022/10/08 10:03:04;;;;;;;6.82;2.03;;;20.80;89.70;;;19.94;49.91;101017.75;4963384;28;20108;-84
2022/10/08 10:05:33;;;;;;;6.80;1.77;;;20.70;90.00;;;20.36;47.25;101040.00;4952597;28;20106;-83
2022/10/08 10:08:00;;;;;;;6.63;1.50;;;21.10;85.60;;;19.89;49.50;101026.00;4961594;28;20039;-81
2022/10/08 10:10:33;;;;;;;8.75;2.42;;;20.60;87.90;;;20.53;46.73;101017.59;4964709;28;20245;-81
2022/10/08 10:13:20;;;;;;;8.40;2.28;;;21.10;86.20;;;22.03;43.67;101019.34;4962038;28;20089;-84
2022/10/08 10:15:55;;;;;;;6.97;1.75;;;21.70;84.70;;;21.44;44.30;101044.78;4965860;28;20031;-83
2022/10/08 10:18:53;;;;;;;5.60;1.45;;;22.00;80.70;;;21.06;44.41;101030.38;4967551;28;20569;-87
2022/10/08 10:21:31;;;;;;;4.95;1.73;;;22.50;79.20;;;21.31;44.01;101037.84;4968046;28;20433;-79
2022/10/08 10:24:27;;;;;;;7.60;2.00;;;22.10;78.80;;;21.65;43.26;101037.25;4956689;28;20047;-81
2022/10/08 10:27:04;;;;;;;8.10;2.10;;;22.60;77.70;;;20.50;45.55;101027.31;4958399;28;20043;-84
2022/10/08 10:29:48;;;;;;;6.53;1.58;;;22.40;77.10;;;18.71;51.17;101031.56;4957748;28;20031;-83
2022/10/08 10:32:26;;;;;;;6.55;1.80;;;20.60;84.80;;;19.53;49.08;101021.13;4962771;28;20051;-87
2022/10/08 10:35:04;;;;;;;8.05;2.22;;;20.00;85.80;;;20.79;45.26;101024.03;4955781;28;20027;-82
2022/10/08 10:37:43;;;;;;;6.25;1.90;;;21.30;80.00;;;22.24;42.03;101031.97;4967299;28;20058;-83
2022/10/08 10:40:34;;;;;;;9.15;2.03;;;22.50;77.50;;;20.99;43.95;101033.47;4964103;28;20043;-85